Time,TemperatureF,DewpointF,PressureIn,WindDirection,WindDirectionDegrees,WindSpeedMPH,WindSpeedGustMPH,Humidity,HourlyPrecipIn,Conditions,Clouds,dailyrainin,SoftwareType,DateUTC
2013-06-12 00:05:00,72.7,70.6,29.90,East,90,0.0,-999.0,93,-99.99,,,0.00,Acu-Link.com,2013-06-12 04:05:00,
2013-06-12 00:21:00,72.7,71.2,29.90,East,90,0.0,-999.0,95,-99.99,,,0.00,Acu-Link.com,2013-06-12 04:21:00,
2013-06-12 00:36:00,72.3,70.8,29.90,NW,315,0.0,-999.0,95,-99.99,,,0.00,Acu-Link.com,2013-06-12 04:36:00,
2013-06-12 00:52:00,72.3,70.8,29.90,NNW,337,2.2,-999.0,95,-99.99,,,0.00,Acu-Link.com,2013-06-12 04:52:00,
2013-06-12 01:07:00,72.1,70.6,29.90,NNW,337,0.0,-999.0,95,-99.99,,,0.00,Acu-Link.com,2013-06-12 05:07:00,
2013-06-12 01:22:00,72.1,70.6,29.90,NNW,337,0.0,-999.0,95,-99.99,,,0.00,Acu-Link.com,2013-06-12 05:22:00,
2013-06-12 01:37:00,71.8,70.3,29.89,NNW,337,0.0,-999.0,95,-99.99,,,0.00,Acu-Link.com,2013-06-12 05:37:00,
2013-06-12 01:53:00,71.8,70.6,29.90,NNW,337,0.0,-999.0,96,-99.99,,,0.00,Acu-Link.com,2013-06-12 05:53:00,
2013-06-12 02:08:00,71.2,69.7,29.90,NNW,337,0.0,-999.0,95,-99.99,,,0.00,Acu-Link.com,2013-06-12 06:08:00,
2013-06-12 02:23:00,71.4,69.9,29.90,NNW,337,0.0,-999.0,95,-99.99,,,0.00,Acu-Link.com,2013-06-12 06:23:00,
2013-06-12 02:38:00,71.1,69.6,29.89,NNW,337,0.0,-999.0,95,-99.99,,,0.00,Acu-Link.com,2013-06-12 06:38:00,
2013-06-12 02:54:00,71.1,69.9,29.89,NNW,337,0.0,-999.0,96,-99.99,,,0.00,Acu-Link.com,2013-06-12 06:54:00,
2013-06-12 03:09:00,71.1,69.9,29.89,NNW,337,0.0,-999.0,96,-99.99,,,0.00,Acu-Link.com,2013-06-12 07:09:00,
2013-06-12 03:24:00,70.9,69.7,29.88,NNW,337,0.0,-999.0,96,-99.99,,,0.00,Acu-Link.com,2013-06-12 07:24:00,
2013-06-12 03:39:00,70.9,70.0,29.88,NNW,337,0.0,-999.0,97,-99.99,,,0.00,Acu-Link.com,2013-06-12 07:39:00,
2013-06-12 03:55:00,70.5,69.3,29.88,NNW,337,0.0,-999.0,96,-99.99,,,0.00,Acu-Link.com,2013-06-12 07:55:00,
2013-06-12 04:12:00,70.5,69.3,29.88,NNW,337,0.0,-999.0,96,-99.99,,,0.00,Acu-Link.com,2013-06-12 08:12:00,
2013-06-12 04:27:00,70.5,69.3,29.88,NNW,337,0.0,-999.0,96,-99.99,,,0.00,Acu-Link.com,2013-06-12 08:27:00,
2013-06-12 04:42:00,70.3,69.1,29.89,NNW,337,0.0,-999.0,96,-99.99,,,0.00,Acu-Link.com,2013-06-12 08:42:00,
2013-06-12 04:57:00,70.2,68.7,29.89,NNW,337,0.0,-999.0,95,-99.99,,,0.00,Acu-Link.com,2013-06-12 08:57:00,
2013-06-12 05:13:00,70.2,68.7,29.89,NNW,337,0.0,-999.0,95,-99.99,,,0.00,Acu-Link.com,2013-06-12 09:13:00,
2013-06-12 05:28:00,70.0,68.5,29.90,NNW,337,0.0,-999.0,95,-99.99,,,0.00,Acu-Link.com,2013-06-12 09:28:00,
2013-06-12 05:43:00,70.3,69.1,29.90,NNW,337,0.0,-999.0,96,-99.99,,,0.00,Acu-Link.com,2013-06-12 09:43:00,
2013-06-12 05:59:00,70.0,68.8,29.90,NNW,337,0.0,-999.0,96,-99.99,,,0.00,Acu-Link.com,2013-06-12 09:59:00,
2013-06-12 06:14:00,70.0,68.8,29.90,NNW,337,0.0,-999.0,96,-99.99,,,0.00,Acu-Link.com,2013-06-12 10:14:00,
2013-06-12 06:29:00,70.0,68.8,29.91,NNW,337,0.0,-999.0,96,-99.99,,,0.00,Acu-Link.com,2013-06-12 10:29:00,
2013-06-12 06:45:00,70.0,68.8,29.90,NNW,337,0.0,-999.0,96,-99.99,,,0.00,Acu-Link.com,2013-06-12 10:45:00,
2013-06-12 07:00:00,71.2,70.0,29.90,NNW,337,0.0,-999.0,96,-99.99,,,0.00,Acu-Link.com,2013-06-12 11:00:00,
2013-06-12 07:15:00,72.7,71.5,29.91,NNW,337,0.0,-999.0,96,-99.99,,,0.00,Acu-Link.com,2013-06-12 11:15:00,
2013-06-12 07:31:00,74.1,71.9,29.91,North,0,0.0,-999.0,93,-99.99,,,0.00,Acu-Link.com,2013-06-12 11:31:00,
2013-06-12 07:46:00,76.8,73.3,29.91,NNE,22,0.0,-999.0,89,-99.99,,,0.00,Acu-Link.com,2013-06-12 11:46:00,
2013-06-12 08:01:00,77.5,74.0,29.91,North,0,0.0,-999.0,89,-99.99,,,0.00,Acu-Link.com,2013-06-12 12:01:00,
2013-06-12 08:17:00,78.6,74.7,29.92,NW,315,0.0,-999.0,88,-99.99,,,0.00,Acu-Link.com,2013-06-12 12:17:00,
2013-06-12 08:32:00,80.1,75.9,29.92,WNW,292,0.0,-999.0,87,-99.99,,,0.00,Acu-Link.com,2013-06-12 12:32:00,
2013-06-12 08:47:00,81.7,76.4,29.92,West,270,0.0,-999.0,84,-99.99,,,0.00,Acu-Link.com,2013-06-12 12:47:00,
2013-06-12 09:02:00,82.9,76.8,29.93,ENE,67,0.0,-999.0,82,-99.99,,,0.00,Acu-Link.com,2013-06-12 13:02:00,
2013-06-12 09:18:00,83.3,77.6,29.92,NE,45,0.0,-999.0,83,-99.99,,,0.00,Acu-Link.com,2013-06-12 13:18:00,
2013-06-12 09:33:00,84.7,77.4,29.92,ENE,67,0.0,-999.0,79,-99.99,,,0.00,Acu-Link.com,2013-06-12 13:33:00,
2013-06-12 09:48:00,84.6,77.0,29.92,WNW,292,2.7,-999.0,78,-99.99,,,0.00,Acu-Link.com,2013-06-12 13:48:00,
2013-06-12 10:04:00,86.5,77.2,29.91,North,0,2.2,-999.0,74,-99.99,,,0.00,Acu-Link.com,2013-06-12 14:04:00,
2013-06-12 10:19:00,86.4,77.9,29.91,East,90,1.7,-999.0,76,-99.99,,,0.00,Acu-Link.com,2013-06-12 14:19:00,
2013-06-12 10:34:00,88.7,78.9,29.91,NNE,22,0.0,-999.0,73,-99.99,,,0.00,Acu-Link.com,2013-06-12 14:34:00,
2013-06-12 10:50:00,88.2,78.0,29.91,WSW,247,2.7,-999.0,72,-99.99,,,0.00,Acu-Link.com,2013-06-12 14:50:00,
2013-06-12 11:05:00,85.5,77.0,29.92,NNW,337,0.0,-999.0,76,-99.99,,,0.00,Acu-Link.com,2013-06-12 15:05:00,
2013-06-12 11:20:00,85.3,76.0,29.92,East,90,0.0,-999.0,74,-99.99,,,0.00,Acu-Link.com,2013-06-12 15:20:00,
2013-06-12 11:35:00,88.9,76.9,29.92,NNW,337,1.7,-999.0,68,-99.99,,,0.00,Acu-Link.com,2013-06-12 15:35:00,
2013-06-12 11:50:00,90.1,75.8,29.92,East,90,1.1,-999.0,63,-99.99,,,0.00,Acu-Link.com,2013-06-12 15:50:00,
2013-06-12 12:05:00,86.9,75.9,29.91,NNW,337,1.7,-999.0,70,-99.99,,,0.00,Acu-Link.com,2013-06-12 16:05:00,
2013-06-12 12:21:00,91.9,76.0,29.90,NE,45,0.0,-999.0,60,-99.99,,,0.00,Acu-Link.com,2013-06-12 16:21:00,
2013-06-12 12:36:00,91.6,75.7,29.90,ESE,112,3.7,-999.0,60,-99.99,,,0.00,Acu-Link.com,2013-06-12 16:36:00,
2013-06-12 12:51:00,89.4,78.3,29.91,East,90,5.8,-999.0,70,-99.99,,,0.00,Acu-Link.com,2013-06-12 16:51:00,
2013-06-12 13:07:00,89.4,78.7,29.89,ENE,67,3.7,-999.0,71,-99.99,,,0.00,Acu-Link.com,2013-06-12 17:07:00,
2013-06-12 13:22:00,87.1,78.6,29.89,NE,45,4.2,-999.0,76,-99.99,,,0.00,Acu-Link.com,2013-06-12 17:22:00,
2013-06-12 13:37:00,90.5,78.5,29.88,ESE,112,4.7,-999.0,68,-99.99,,,0.00,Acu-Link.com,2013-06-12 17:37:00,
2013-06-12 13:53:00,90.1,78.5,29.88,ENE,67,4.2,-999.0,69,-99.99,,,0.00,Acu-Link.com,2013-06-12 17:53:00,
2013-06-12 14:08:00,91.0,79.4,29.88,ENE,67,4.7,-999.0,69,-99.99,,,0.00,Acu-Link.com,2013-06-12 18:08:00,
2013-06-12 14:23:00,91.2,78.2,29.87,NNE,22,3.7,-999.0,66,-99.99,,,0.00,Acu-Link.com,2013-06-12 18:23:00,
2013-06-12 14:38:00,90.3,76.9,29.87,ESE,112,4.7,-999.0,65,-99.99,,,0.00,Acu-Link.com,2013-06-12 18:38:00,
2013-06-12 14:53:00,90.0,76.6,29.87,ESE,112,5.3,-999.0,65,-99.99,,,0.00,Acu-Link.com,2013-06-12 18:53:00,
2013-06-12 15:09:00,89.1,76.7,29.86,ENE,67,4.7,-999.0,67,-99.99,,,0.00,Acu-Link.com,2013-06-12 19:09:00,
2013-06-12 15:24:00,88.0,77.8,29.87,ESE,112,6.3,-999.0,72,-99.99,,,0.00,Acu-Link.com,2013-06-12 19:24:00,
2013-06-12 15:39:00,88.9,78.2,29.87,ESE,112,5.3,-999.0,71,-99.99,,,0.00,Acu-Link.com,2013-06-12 19:39:00,
2013-06-12 15:54:00,88.2,77.6,29.87,SE,135,6.8,-999.0,71,-99.99,,,0.00,Acu-Link.com,2013-06-12 19:54:00,
2013-06-12 16:09:00,87.6,77.0,29.88,SE,135,5.3,-999.0,71,-99.99,,,0.00,Acu-Link.com,2013-06-12 20:09:00,
2013-06-12 16:24:00,87.6,76.6,29.87,South,180,8.3,-999.0,70,-99.99,,,0.00,Acu-Link.com,2013-06-12 20:24:00,
2013-06-12 16:39:00,88.9,76.0,29.86,South,180,3.7,-999.0,66,-99.99,,,0.00,Acu-Link.com,2013-06-12 20:39:00,
2013-06-12 16:55:00,88.2,75.8,29.85,ESE,112,4.2,-999.0,67,-99.99,,,0.00,Acu-Link.com,2013-06-12 20:55:00,
2013-06-12 17:10:00,87.1,74.8,29.86,SE,135,5.3,-999.0,67,-99.99,,,0.00,Acu-Link.com,2013-06-12 21:10:00,
2013-06-12 17:25:00,88.5,75.7,29.86,SSE,157,8.3,-999.0,66,-99.99,,,0.00,Acu-Link.com,2013-06-12 21:25:00,
2013-06-12 17:41:00,87.3,75.0,29.86,SE,135,6.8,-999.0,67,-99.99,,,0.00,Acu-Link.com,2013-06-12 21:41:00,
2013-06-12 17:56:00,86.0,75.0,29.86,ESE,112,9.4,-999.0,70,-99.99,,,0.00,Acu-Link.com,2013-06-12 21:56:00,
2013-06-12 18:11:00,85.5,75.4,29.86,SW,225,2.7,-999.0,72,-99.99,,,0.00,Acu-Link.com,2013-06-12 22:11:00,
2013-06-12 18:26:00,85.1,75.0,29.86,ESE,112,5.8,-999.0,72,-99.99,,,0.00,Acu-Link.com,2013-06-12 22:26:00,
2013-06-12 18:41:00,85.6,75.5,29.85,ESE,112,6.3,-999.0,72,-99.99,,,0.00,Acu-Link.com,2013-06-12 22:41:00,
2013-06-12 18:57:00,83.7,73.7,29.86,ESE,112,6.3,-999.0,72,-99.99,,,0.00,Acu-Link.com,2013-06-12 22:57:00,
2013-06-12 19:12:00,83.1,71.9,29.86,WNW,292,1.7,-999.0,69,-99.99,,,0.00,Acu-Link.com,2013-06-12 23:12:00,
2013-06-12 19:27:00,84.2,71.1,29.86,SSE,157,2.2,-999.0,65,-99.99,,,0.00,Acu-Link.com,2013-06-12 23:27:00,
2013-06-12 19:42:00,82.9,71.7,29.86,ESE,112,3.7,-999.0,69,-99.99,,,0.00,Acu-Link.com,2013-06-12 23:42:00,
2013-06-12 19:57:00,81.5,71.2,29.86,SE,135,2.7,-999.0,71,-99.99,,,0.00,Acu-Link.com,2013-06-12 23:57:00,
2013-06-12 20:13:00,81.0,71.5,29.87,SW,225,1.7,-999.0,73,-99.99,,,0.00,Acu-Link.com,2013-06-13 00:13:00,
2013-06-12 20:28:00,80.2,71.5,29.86,SSW,202,0.0,-999.0,75,-99.99,,,0.00,Acu-Link.com,2013-06-13 00:28:00,
2013-06-12 20:43:00,79.3,71.1,29.87,WSW,247,1.1,-999.0,76,-99.99,,,0.00,Acu-Link.com,2013-06-13 00:43:00,
2013-06-12 20:59:00,78.8,71.3,29.87,West,270,2.7,-999.0,78,-99.99,,,0.00,Acu-Link.com,2013-06-13 00:59:00,
2013-06-12 21:14:00,78.3,71.2,29.87,SW,225,0.0,-999.0,79,-99.99,,,0.00,Acu-Link.com,2013-06-13 01:14:00,
2013-06-12 21:29:00,77.9,71.6,29.88,SW,225,3.2,-999.0,81,-99.99,,,0.00,Acu-Link.com,2013-06-13 01:29:00,
2013-06-12 21:45:00,77.4,71.8,29.88,West,270,2.7,-999.0,83,-99.99,,,0.00,Acu-Link.com,2013-06-13 01:45:00,
2013-06-12 22:00:00,77.2,70.5,29.89,North,0,2.7,-999.0,80,-99.99,,,0.00,Acu-Link.com,2013-06-13 02:00:00,
2013-06-12 22:15:00,77.0,70.7,29.88,WNW,292,3.2,-999.0,81,-99.99,,,0.00,Acu-Link.com,2013-06-13 02:15:00,
2013-06-12 22:30:00,76.6,70.7,29.89,WSW,247,2.2,-999.0,82,-99.99,,,0.00,Acu-Link.com,2013-06-13 02:30:00,
2013-06-12 22:45:00,76.3,70.4,29.88,SW,225,0.0,-999.0,82,-99.99,,,0.00,Acu-Link.com,2013-06-13 02:45:00,
2013-06-12 23:01:00,75.9,70.7,29.88,West,270,0.0,-999.0,84,-99.99,,,0.00,Acu-Link.com,2013-06-13 03:01:00,
2013-06-12 23:16:00,75.6,70.8,29.88,SW,225,2.7,-999.0,85,-99.99,,,0.00,Acu-Link.com,2013-06-13 03:16:00,
2013-06-12 23:32:00,75.6,71.1,29.89,South,180,0.0,-999.0,86,-99.99,,,0.00,Acu-Link.com,2013-06-13 03:32:00,
2013-06-12 23:47:00,75.4,71.3,29.88,South,180,0.0,-999.0,87,-99.99,,,0.00,Acu-Link.com,2013-06-13 03:47:00,